This is the latest recevied weather packets stored in our database for station/object WS2Z. If no packets are shown the sender has not sent any weather packets the latest 10 day(s).
| Time | Temp. | Humidity | Pressure | Rain* | Wind** | Luminosity | Snow |
|---|---|---|---|---|---|---|---|
| 1777232062 | 28.33° C | 68% | 1012.2 hPa | 0 mm | - | 725 W/m² | - |
| 1777231760 | 28.89° C | 68% | 1012.2 hPa | 0 mm | - | 731 W/m² | - |
| 1777231456 | 28.33° C | 66% | 1012.3 hPa | 0 mm | - | 762 W/m² | - |
| 1777231153 | 28.89° C | 68% | 1012.1 hPa | 0 mm | - | 771 W/m² | - |
| 1777230848 | 28.89° C | 67% | 1012.2 hPa | 0 mm | - | 430 W/m² | - |
| 1777230544 | 28.89° C | 68% | 1012.3 hPa | 0 mm | - | 812 W/m² | - |
| 1777230240 | 29.44° C | 66% | 1012.4 hPa | 0 mm | - | 819 W/m² | - |
| 1777229937 | 29.44° C | 66% | 1012.1 hPa | 0 mm | - | 819 W/m² | - |
| 1777229633 | 30° C | 65% | 1012.2 hPa | 0 mm | - | 824 W/m² | - |
| 1777229330 | 30° C | 64% | 1012.2 hPa | 0 mm | - | 847 W/m² | - |
| 1777229027 | 28.89° C | 68% | 1012.4 hPa | 0 mm | - | 860 W/m² | - |
| 1777228723 | 28.89° C | 67% | 1012.3 hPa | 0 mm | - | 867 W/m² | - |
| 1777228419 | 28.89° C | 67% | 1012.3 hPa | 0 mm | - | 858 W/m² | - |
| 1777228115 | 28.89° C | 67% | 1012.4 hPa | 0 mm | - | 906 W/m² | - |
| 1777227814 | 28.33° C | 69% | 1012.6 hPa | 0 mm | - | 682 W/m² | - |
| 1777227512 | 28.89° C | 68% | 1012.4 hPa | 0 mm | - | 893 W/m² | - |
| 1777227207 | 29.44° C | 69% | 1012.6 hPa | 0 mm | - | 592 W/m² | - |
| 1777226904 | 28.89° C | 69% | 1012.5 hPa | 0 mm | - | 881 W/m² | - |
| 1777226602 | 28.89° C | 68% | 1012.7 hPa | 0 mm | - | 868 W/m² | - |
| 1777226299 | 28.33° C | 69% | 1012.7 hPa | 0 mm | - | 867 W/m² | - |
| 1777225994 | 28.33° C | 68% | 1012.8 hPa | 0 mm | - | 876 W/m² | - |
| 1777225690 | 28.89° C | 69% | 1012.8 hPa | 0 mm | - | 398 W/m² | - |
| 1777225388 | 30° C | 64% | 1012.8 hPa | 0 mm | - | 878 W/m² | - |
| 1777225085 | 29.44° C | 65% | 1012.8 hPa | 0 mm | - | 899 W/m² | - |
| 1777224781 | 28.89° C | 67% | 1012.9 hPa | 0 mm | - | 914 W/m² | - |
* Rain latest hour (hover to see other rain measurements)
** Current wind speed in m/s (hover to see current wind gust speed)